Time;durP1;ratioP1;P1;durP2;ratioP2;P2;SDS_P1;SDS_P2;PMS_P1;PMS_P2;Temp;Humidity;BMP_temperature;BMP_pressure;BME280_temperature;BME280_humidity;BME280_pressure;Samples;Min_cycle;Max_cycle;Signal;HPM_P1;HPM_P2
2023/06/25 00:01:08;;;;;;;6.90;5.60;;;;;;;;;;108011;268;38481;-42
2023/06/25 00:03:57;;;;;;;6.50;5.50;;;;;;;;;;107998;268;39642;-42
2023/06/25 00:06:30;;;;;;;6.90;5.90;;;;;;;;;;107901;270;48287;-42
2023/06/25 00:09:05;;;;;;;6.30;5.60;;;;;;;;;;107971;276;41904;-42
2023/06/25 00:11:38;;;;;;;6.50;5.80;;;;;;;;;;107994;276;39921;-42
2023/06/25 00:14:12;;;;;;;6.70;6.00;;;;;;;;;;108004;276;40068;-41
2023/06/25 00:16:46;;;;;;;7.20;6.00;;;;;;;;;;107989;268;48482;-41
2023/06/25 00:19:20;;;;;;;7.30;5.90;;;;;;;;;;108001;275;41911;-41
2023/06/25 00:21:55;;;;;;;7.30;5.70;;;;;;;;;;108008;272;38774;-41
2023/06/25 00:24:28;;;;;;;6.70;5.80;;;;;;;;;;108014;268;39619;-41
2023/06/25 00:27:01;;;;;;;6.20;5.60;;;;;;;;;;107893;276;48541;-41
2023/06/25 00:29:37;;;;;;;6.30;5.60;;;;;;;;;;108014;272;42198;-44
2023/06/25 00:32:13;;;;;;;7.00;5.90;;;;;;;;;;107971;274;38898;-42
2023/06/25 00:34:47;;;;;;;7.00;5.60;;;;;;;;;;107998;272;39629;-41
2023/06/25 00:37:20;;;;;;;6.60;5.80;;;;;;;;;;107984;272;48850;-41
2023/06/25 00:39:54;;;;;;;6.80;5.80;;;;;;;;;;107997;275;41920;-42
2023/06/25 00:42:40;;;;;;;6.70;5.50;;;;;;;;;;108016;276;38752;-41
2023/06/25 00:45:16;;;;;;;6.60;5.80;;;;;;;;;;107886;268;39447;-42
2023/06/25 00:47:49;;;;;;;7.30;6.30;;;;;;;;;;107980;268;51416;-41
2023/06/25 00:50:28;;;;;;;7.20;6.00;;;;;;;;;;108013;268;43103;-42
2023/06/25 00:53:02;;;;;;;6.70;5.70;;;;;;;;;;108004;268;38724;-42
2023/06/25 00:55:36;;;;;;;7.30;6.10;;;;;;;;;;108003;275;40755;-41
2023/06/25 00:58:10;;;;;;;7.80;6.20;;;;;;;;;;108033;269;50033;-43
2023/06/25 01:00:44;;;;;;;6.90;6.00;;;;;;;;;;108060;272;42240;-43
2023/06/25 01:03:26;;;;;;;6.70;5.80;;;;;;;;;;108046;276;38561;-41
2023/06/25 01:06:10;;;;;;;7.20;6.00;;;;;;;;;;107946;272;40708;-41
2023/06/25 01:08:49;;;;;;;7.00;5.90;;;;;;;;;;108022;275;42874;-42
2023/06/25 01:11:23;;;;;;;6.40;5.70;;;;;;;;;;108052;268;42111;-41
2023/06/25 01:13:56;;;;;;;7.30;6.20;;;;;;;;;;108012;268;38699;-42
2023/06/25 01:16:30;;;;;;;8.20;6.10;;;;;;;;;;107988;272;39707;-42
2023/06/25 01:19:05;;;;;;;6.90;6.20;;;;;;;;;;108025;275;42998;-41
2023/06/25 01:21:40;;;;;;;7.30;5.80;;;;;;;;;;107998;268;43277;-43
2023/06/25 01:24:13;;;;;;;6.60;5.90;;;;;;;;;;108015;273;38910;-42
2023/06/25 01:26:51;;;;;;;6.80;6.00;;;;;;;;;;108001;276;39713;-41
2023/06/25 01:29:25;;;;;;;7.10;6.20;;;;;;;;;;107994;272;43125;-42
2023/06/25 01:32:01;;;;;;;6.70;5.80;;;;;;;;;;108001;272;43368;-42
2023/06/25 01:34:34;;;;;;;7.00;5.80;;;;;;;;;;108038;272;38821;-42
2023/06/25 01:37:09;;;;;;;6.80;5.70;;;;;;;;;;107967;275;39696;-42
2023/06/25 01:39:43;;;;;;;6.70;5.90;;;;;;;;;;108055;268;42848;-42
2023/06/25 01:42:16;;;;;;;6.50;5.80;;;;;;;;;;107978;272;42134;-41
2023/06/25 01:44:52;;;;;;;7.40;6.00;;;;;;;;;;108004;275;38571;-43
2023/06/25 01:47:26;;;;;;;7.00;5.90;;;;;;;;;;107963;272;39905;-42
2023/06/25 01:50:00;;;;;;;6.90;5.90;;;;;;;;;;108031;268;42958;-43
2023/06/25 01:52:33;;;;;;;6.50;5.70;;;;;;;;;;108016;276;41831;-41
2023/06/25 01:55:09;;;;;;;6.60;5.70;;;;;;;;;;107901;272;175490;-42
2023/06/25 01:57:42;;;;;;;6.70;5.80;;;;;;;;;;107984;268;39824;-41
2023/06/25 02:00:20;;;;;;;7.00;5.80;;;;;;;;;;108022;272;42836;-42
2023/06/25 02:02:53;;;;;;;6.90;6.10;;;;;;;;;;107986;268;42333;-43
2023/06/25 02:05:29;;;;;;;7.00;5.70;;;;;;;;;;107986;268;39889;-42
2023/06/25 02:08:02;;;;;;;7.20;5.80;;;;;;;;;;107969;268;39457;-42
2023/06/25 02:10:37;;;;;;;7.70;6.10;;;;;;;;;;108003;272;42935;-41
2023/06/25 02:13:11;;;;;;;7.20;5.80;;;;;;;;;;107974;275;41869;-41
2023/06/25 02:15:47;;;;;;;6.80;5.70;;;;;;;;;;107897;274;175534;-42
2023/06/25 02:18:20;;;;;;;6.90;5.90;;;;;;;;;;107967;268;39656;-42
2023/06/25 02:20:54;;;;;;;6.50;5.60;;;;;;;;;;108005;278;42809;-42
2023/06/25 02:23:27;;;;;;;6.40;5.50;;;;;;;;;;107977;272;41947;-42
2023/06/25 02:26:03;;;;;;;7.20;5.90;;;;;;;;;;107992;272;38765;-42
2023/06/25 02:28:39;;;;;;;7.20;6.10;;;;;;;;;;107988;275;40740;-42
2023/06/25 02:31:12;;;;;;;6.70;5.60;;;;;;;;;;108011;268;42800;-44
2023/06/25 02:33:45;;;;;;;6.70;5.60;;;;;;;;;;108027;275;42114;-42
2023/06/25 02:36:19;;;;;;;6.30;5.60;;;;;;;;;;108029;276;38784;-42
2023/06/25 02:38:53;;;;;;;6.20;5.30;;;;;;;;;;107996;268;41029;-42
2023/06/25 02:41:28;;;;;;;6.50;5.60;;;;;;;;;;108003;268;42649;-43
2023/06/25 02:44:01;;;;;;;6.60;5.40;;;;;;;;;;108003;268;41995;-41
2023/06/25 02:46:36;;;;;;;6.20;5.50;;;;;;;;;;107909;276;39926;-42
2023/06/25 02:49:12;;;;;;;6.20;5.40;;;;;;;;;;107947;275;39438;-41
2023/06/25 02:51:46;;;;;;;6.00;5.30;;;;;;;;;;107358;275;915030;-42
2023/06/25 02:54:20;;;;;;;6.70;5.60;;;;;;;;;;108000;268;42201;-41
2023/06/25 02:56:54;;;;;;;6.60;5.50;;;;;;;;;;108027;272;38967;-41
2023/06/25 02:59:27;;;;;;;6.70;5.50;;;;;;;;;;107986;276;39892;-42
2023/06/25 03:02:01;;;;;;;6.70;5.80;;;;;;;;;;107972;272;42985;-41
2023/06/25 03:04:36;;;;;;;6.50;5.40;;;;;;;;;;107994;268;43191;-41
2023/06/25 03:07:12;;;;;;;6.30;5.30;;;;;;;;;;108012;276;39938;-41
2023/06/25 03:09:50;;;;;;;6.60;5.40;;;;;;;;;;108015;272;39428;-42
2023/06/25 03:12:23;;;;;;;6.20;5.30;;;;;;;;;;107958;272;44190;-41
2023/06/25 03:14:56;;;;;;;6.60;5.50;;;;;;;;;;108003;272;41911;-41
2023/06/25 03:17:29;;;;;;;6.90;5.50;;;;;;;;;;107981;275;38533;-43
2023/06/25 03:20:05;;;;;;;6.20;5.30;;;;;;;;;;107973;275;39468;-42
2023/06/25 03:22:38;;;;;;;6.50;5.40;;;;;;;;;;108016;272;43930;-43
2023/06/25 03:25:13;;;;;;;6.70;5.60;;;;;;;;;;108023;276;43210;-43
2023/06/25 03:27:50;;;;;;;6.60;5.80;;;;;;;;;;107977;268;38796;-42
2023/06/25 03:30:23;;;;;;;6.90;5.70;;;;;;;;;;107996;275;39640;-42
2023/06/25 03:32:58;;;;;;;6.70;5.50;;;;;;;;;;107995;275;42573;-41
2023/06/25 03:35:32;;;;;;;6.50;5.20;;;;;;;;;;108007;268;42297;-42
2023/06/25 03:38:05;;;;;;;6.90;5.50;;;;;;;;;;108007;275;38534;-42
2023/06/25 03:40:39;;;;;;;6.00;5.00;;;;;;;;;;107963;276;39818;-42
2023/06/25 03:43:13;;;;;;;6.40;5.30;;;;;;;;;;108050;268;42867;-41
2023/06/25 03:45:51;;;;;;;6.20;4.80;;;;;;;;;;108001;276;42013;-42
2023/06/25 03:48:24;;;;;;;6.10;5.20;;;;;;;;;;108005;275;39844;-44
2023/06/25 03:50:58;;;;;;;5.70;4.80;;;;;;;;;;107941;278;39635;-42
2023/06/25 03:53:32;;;;;;;6.00;5.20;;;;;;;;;;107988;275;42590;-43
2023/06/25 03:56:07;;;;;;;6.20;5.00;;;;;;;;;;107984;275;42189;-43
2023/06/25 03:58:40;;;;;;;7.40;5.50;;;;;;;;;;108018;275;38755;-42
2023/06/25 04:01:14;;;;;;;5.70;5.10;;;;;;;;;;107961;272;39701;-42
2023/06/25 04:03:47;;;;;;;6.30;5.30;;;;;;;;;;108014;275;42891;-42
2023/06/25 04:06:21;;;;;;;6.30;5.00;;;;;;;;;;107986;272;41816;-42
2023/06/25 04:08:54;;;;;;;6.30;5.30;;;;;;;;;;108015;272;38886;-41
2023/06/25 04:11:28;;;;;;;6.20;4.90;;;;;;;;;;108016;272;39655;-42
2023/06/25 04:14:21;;;;;;;6.40;5.10;;;;;;;;;;108002;272;42632;-44
2023/06/25 04:16:54;;;;;;;6.30;5.00;;;;;;;;;;108054;268;41966;-39
2023/06/25 04:19:31;;;;;;;6.00;4.90;;;;;;;;;;108024;275;38727;-40
2023/06/25 04:22:05;;;;;;;6.30;5.20;;;;;;;;;;108144;275;45317;-42
2023/06/25 04:24:38;;;;;;;6.20;4.80;;;;;;;;;;107993;275;42898;-41
2023/06/25 04:27:12;;;;;;;6.20;5.00;;;;;;;;;;108027;273;42194;-42
2023/06/25 04:29:47;;;;;;;5.90;4.80;;;;;;;;;;108038;268;38878;-41
2023/06/25 04:32:20;;;;;;;6.40;5.30;;;;;;;;;;108110;268;45385;-40
2023/06/25 04:34:53;;;;;;;6.00;5.10;;;;;;;;;;108009;268;42911;-40
2023/06/25 04:37:27;;;;;;;6.10;5.00;;;;;;;;;;108029;268;41905;-42
2023/06/25 04:40:05;;;;;;;6.10;4.90;;;;;;;;;;107965;272;38553;-42
2023/06/25 04:42:39;;;;;;;7.20;5.10;;;;;;;;;;108137;276;45266;-40
2023/06/25 04:45:13;;;;;;;7.20;5.20;;;;;;;;;;107999;272;44039;-41
2023/06/25 04:47:47;;;;;;;6.60;5.60;;;;;;;;;;108012;275;43149;-43
2023/06/25 04:50:22;;;;;;;6.20;5.10;;;;;;;;;;107575;276;596617;-43
2023/06/25 04:52:58;;;;;;;6.40;5.10;;;;;;;;;;108110;268;46510;-42
2023/06/25 04:55:33;;;;;;;6.50;5.00;;;;;;;;;;108048;268;42844;-41
2023/06/25 04:58:08;;;;;;;5.90;5.20;;;;;;;;;;107890;277;42577;-42
2023/06/25 05:00:42;;;;;;;6.40;5.20;;;;;;;;;;107963;276;39950;-41
2023/06/25 05:03:15;;;;;;;7.00;5.30;;;;;;;;;;107911;276;47977;-41
2023/06/25 05:05:51;;;;;;;6.00;5.20;;;;;;;;;;107891;272;42626;-41
2023/06/25 05:08:25;;;;;;;6.70;5.00;;;;;;;;;;107948;269;43148;-41
2023/06/25 05:11:00;;;;;;;6.60;5.00;;;;;;;;;;107912;272;38838;-42
2023/06/25 05:13:41;;;;;;;6.80;5.20;;;;;;;;;;107833;272;175428;-41
2023/06/25 05:16:15;;;;;;;6.50;5.40;;;;;;;;;;107925;269;42827;-42
2023/06/25 05:18:48;;;;;;;7.00;5.50;;;;;;;;;;107927;273;43275;-41
2023/06/25 05:21:26;;;;;;;6.70;5.50;;;;;;;;;;107953;273;38524;-42
2023/06/25 05:24:04;;;;;;;7.00;5.60;;;;;;;;;;107930;272;45161;-42
2023/06/25 05:26:40;;;;;;;6.30;5.20;;;;;;;;;;107952;272;42848;-41
2023/06/25 05:29:13;;;;;;;7.40;5.90;;;;;;;;;;107922;269;43381;-41
2023/06/25 05:31:50;;;;;;;7.30;5.80;;;;;;;;;;107887;278;38582;-41
2023/06/25 05:34:24;;;;;;;6.60;5.30;;;;;;;;;;107988;272;45625;-42
2023/06/25 05:36:59;;;;;;;7.60;5.70;;;;;;;;;;107913;273;42661;-42
2023/06/25 05:39:32;;;;;;;9.00;6.50;;;;;;;;;;107310;272;912556;-42
2023/06/25 05:42:10;;;;;;;8.40;6.10;;;;;;;;;;107899;272;38797;-41
2023/06/25 05:44:43;;;;;;;9.10;6.60;;;;;;;;;;107920;269;46918;-42
2023/06/25 05:47:17;;;;;;;8.10;6.40;;;;;;;;;;107936;269;42627;-41
2023/06/25 05:49:53;;;;;;;8.90;6.20;;;;;;;;;;107949;269;42121;-43
2023/06/25 05:52:29;;;;;;;7.70;6.20;;;;;;;;;;107964;272;38879;-43
2023/06/25 05:55:09;;;;;;;8.70;6.00;;;;;;;;;;107952;272;46823;-41
2023/06/25 05:57:42;;;;;;;7.50;6.30;;;;;;;;;;107957;272;42908;-44
2023/06/25 06:00:21;;;;;;;7.10;5.80;;;;;;;;;;108019;268;42105;-42
2023/06/25 06:02:54;;;;;;;7.60;6.10;;;;;;;;;;107970;268;38820;-41
2023/06/25 06:05:28;;;;;;;8.50;6.40;;;;;;;;;;107939;276;39557;-43
2023/06/25 06:08:02;;;;;;;7.80;6.50;;;;;;;;;;107977;275;42590;-41
2023/06/25 06:10:36;;;;;;;8.30;6.70;;;;;;;;;;107993;268;41867;-41
2023/06/25 06:13:10;;;;;;;8.10;6.30;;;;;;;;;;108000;272;38517;-42
2023/06/25 06:15:43;;;;;;;7.80;6.20;;;;;;;;;;108003;275;39697;-44
2023/06/25 06:18:17;;;;;;;7.90;6.50;;;;;;;;;;108023;268;42820;-41
2023/06/25 06:20:51;;;;;;;8.30;6.70;;;;;;;;;;107993;268;42135;-41
2023/06/25 06:23:24;;;;;;;7.90;6.20;;;;;;;;;;108000;276;38722;-41
2023/06/25 06:26:00;;;;;;;8.30;6.20;;;;;;;;;;108015;275;39851;-41
2023/06/25 06:28:33;;;;;;;8.10;6.30;;;;;;;;;;107893;276;175448;-41
2023/06/25 06:31:07;;;;;;;7.30;6.10;;;;;;;;;;108014;272;42119;-41
2023/06/25 06:33:43;;;;;;;8.10;6.10;;;;;;;;;;107983;272;38584;-41
2023/06/25 06:36:16;;;;;;;7.30;6.30;;;;;;;;;;107991;275;40797;-43
2023/06/25 06:38:50;;;;;;;7.40;5.90;;;;;;;;;;108002;275;42596;-41
2023/06/25 06:41:24;;;;;;;7.60;5.90;;;;;;;;;;108000;268;42168;-41
2023/06/25 06:44:13;;;;;;;7.10;5.80;;;;;;;;;;107978;276;38774;-41
2023/06/25 06:46:50;;;;;;;7.50;5.90;;;;;;;;;;108056;276;39541;-42
2023/06/25 06:49:24;;;;;;;7.20;6.20;;;;;;;;;;108040;276;42638;-42
2023/06/25 06:51:58;;;;;;;7.10;5.80;;;;;;;;;;107998;272;41831;-41
2023/06/25 06:54:37;;;;;;;7.30;5.70;;;;;;;;;;107973;272;38809;-41
2023/06/25 06:57:11;;;;;;;7.00;5.40;;;;;;;;;;107979;275;40195;-42
2023/06/25 06:59:45;;;;;;;7.00;5.40;;;;;;;;;;108056;275;42945;-41
2023/06/25 07:02:19;;;;;;;7.00;5.40;;;;;;;;;;108001;272;41966;-41
2023/06/25 07:04:52;;;;;;;7.00;5.30;;;;;;;;;;108000;268;38757;-42
2023/06/25 07:07:26;;;;;;;6.60;5.30;;;;;;;;;;108005;272;40658;-44
2023/06/25 07:10:01;;;;;;;6.70;5.40;;;;;;;;;;108003;272;42880;-43
2023/06/25 07:12:37;;;;;;;7.00;5.60;;;;;;;;;;108004;276;42151;-41
2023/06/25 07:15:13;;;;;;;7.00;5.90;;;;;;;;;;107962;274;39854;-42
2023/06/25 07:17:46;;;;;;;6.80;5.70;;;;;;;;;;108038;275;39692;-42
2023/06/25 07:20:20;;;;;;;6.50;5.60;;;;;;;;;;108020;268;42827;-41
2023/06/25 07:22:53;;;;;;;6.90;5.60;;;;;;;;;;108017;272;42113;-42
2023/06/25 07:25:26;;;;;;;6.90;5.40;;;;;;;;;;107973;272;39809;-41
2023/06/25 07:28:00;;;;;;;6.80;5.50;;;;;;;;;;107980;268;40504;-42
2023/06/25 07:30:34;;;;;;;7.00;5.80;;;;;;;;;;108042;272;42846;-41
2023/06/25 07:33:07;;;;;;;7.30;5.70;;;;;;;;;;107993;272;41904;-42
2023/06/25 07:35:41;;;;;;;8.50;6.00;;;;;;;;;;107953;268;38878;-41
2023/06/25 07:38:15;;;;;;;6.70;5.50;;;;;;;;;;107966;276;39858;-42
2023/06/25 07:40:49;;;;;;;7.70;6.00;;;;;;;;;;108006;272;42901;-41
2023/06/25 07:43:22;;;;;;;7.90;5.90;;;;;;;;;;108010;272;41832;-41
2023/06/25 07:45:56;;;;;;;7.20;5.80;;;;;;;;;;107967;276;38806;-41
2023/06/25 07:48:31;;;;;;;7.10;5.80;;;;;;;;;;108018;275;40770;-42
2023/06/25 07:51:05;;;;;;;7.50;6.10;;;;;;;;;;107980;268;42660;-41
2023/06/25 07:53:39;;;;;;;7.50;5.90;;;;;;;;;;107984;275;42152;-43
2023/06/25 07:56:14;;;;;;;7.70;5.80;;;;;;;;;;108021;268;39066;-41
2023/06/25 07:58:47;;;;;;;7.60;5.70;;;;;;;;;;107970;272;39660;-44
2023/06/25 08:01:21;;;;;;;8.00;6.20;;;;;;;;;;108019;276;43927;-43
2023/06/25 08:03:54;;;;;;;7.60;5.80;;;;;;;;;;108032;268;42556;-43
2023/06/25 08:06:29;;;;;;;8.30;6.10;;;;;;;;;;108028;275;38531;-41
2023/06/25 08:09:02;;;;;;;7.10;5.80;;;;;;;;;;108023;272;39532;-42
2023/06/25 08:11:36;;;;;;;8.40;6.30;;;;;;;;;;108003;268;42928;-43
2023/06/25 08:14:09;;;;;;;8.20;6.40;;;;;;;;;;108013;275;42157;-42
2023/06/25 08:16:47;;;;;;;8.50;7.10;;;;;;;;;;107974;268;38607;-43
2023/06/25 08:19:34;;;;;;;8.10;6.90;;;;;;;;;;108029;272;39703;-43
2023/06/25 08:22:09;;;;;;;9.20;7.30;;;;;;;;;;108010;268;42845;-47
2023/06/25 08:24:42;;;;;;;9.50;7.60;;;;;;;;;;108054;275;43154;-43
2023/06/25 08:27:17;;;;;;;10.40;8.90;;;;;;;;;;108018;268;38753;-43
2023/06/25 08:29:52;;;;;;;12.00;10.20;;;;;;;;;;107895;268;175438;-44
2023/06/25 08:32:26;;;;;;;10.50;9.30;;;;;;;;;;108019;276;42920;-43
2023/06/25 08:35:00;;;;;;;10.60;9.10;;;;;;;;;;108018;268;42330;-44
2023/06/25 08:37:36;;;;;;;8.80;7.70;;;;;;;;;;108020;268;38783;-46
2023/06/25 08:40:14;;;;;;;8.30;6.60;;;;;;;;;;108034;276;39585;-43
2023/06/25 08:42:49;;;;;;;8.20;6.40;;;;;;;;;;108084;272;42824;-47
2023/06/25 08:45:24;;;;;;;8.50;7.40;;;;;;;;;;108019;272;42247;-44
2023/06/25 08:48:04;;;;;;;8.50;6.90;;;;;;;;;;107987;272;39064;-44
2023/06/25 08:50:39;;;;;;;8.30;7.30;;;;;;;;;;108029;275;39838;-45
2023/06/25 08:53:13;;;;;;;8.20;7.10;;;;;;;;;;108060;268;43183;-46
2023/06/25 08:55:51;;;;;;;8.20;6.90;;;;;;;;;;108016;275;42460;-44
2023/06/25 08:58:28;;;;;;;8.30;7.00;;;;;;;;;;107969;272;38498;-43
2023/06/25 09:01:04;;;;;;;8.90;6.90;;;;;;;;;;108044;272;39671;-44
2023/06/25 09:03:38;;;;;;;7.80;6.40;;;;;;;;;;108038;272;44147;-43
2023/06/25 09:06:19;;;;;;;7.60;6.40;;;;;;;;;;107931;268;175412;-44
2023/06/25 09:09:01;;;;;;;6.90;5.80;;;;;;;;;;107966;272;45592;-43
2023/06/25 09:11:39;;;;;;;7.60;5.90;;;;;;;;;;108030;268;39691;-43
2023/06/25 09:14:19;;;;;;;7.40;5.60;;;;;;;;;;108021;272;42863;-43
2023/06/25 09:16:54;;;;;;;7.30;5.90;;;;;;;;;;107898;278;43316;-43
2023/06/25 09:19:31;;;;;;;7.10;5.80;;;;;;;;;;108037;268;44483;-43
2023/06/25 09:22:05;;;;;;;6.50;5.40;;;;;;;;;;108000;268;39465;-44
2023/06/25 09:24:44;;;;;;;7.10;6.00;;;;;;;;;;108068;268;42844;-45
2023/06/25 09:27:21;;;;;;;7.50;6.10;;;;;;;;;;108030;268;43228;-44
2023/06/25 09:29:58;;;;;;;6.90;5.70;;;;;;;;;;108001;268;38919;-43
2023/06/25 09:32:31;;;;;;;7.20;6.00;;;;;;;;;;108043;268;39694;-42
2023/06/25 09:35:12;;;;;;;6.60;5.80;;;;;;;;;;108033;268;42651;-44
2023/06/25 09:37:45;;;;;;;7.70;6.00;;;;;;;;;;107947;275;42171;-44
2023/06/25 09:40:21;;;;;;;6.90;5.80;;;;;;;;;;107934;272;177180;-44
2023/06/25 09:42:59;;;;;;;7.00;5.50;;;;;;;;;;107999;276;39795;-42
2023/06/25 09:45:34;;;;;;;7.60;5.80;;;;;;;;;;108051;276;42853;-43
2023/06/25 09:48:10;;;;;;;6.90;5.30;;;;;;;;;;108008;268;42101;-43
2023/06/25 09:50:50;;;;;;;7.20;5.60;;;;;;;;;;108015;275;38749;-42
2023/06/25 09:53:29;;;;;;;8.00;5.60;;;;;;;;;;108059;272;40837;-43
2023/06/25 09:56:07;;;;;;;7.50;5.50;;;;;;;;;;108051;268;42823;-43
2023/06/25 09:58:40;;;;;;;8.30;5.60;;;;;;;;;;108009;268;41888;-43
2023/06/25 10:01:14;;;;;;;7.70;5.80;;;;;;;;;;108046;273;38777;-44
2023/06/25 10:03:48;;;;;;;7.50;5.60;;;;;;;;;;108023;268;39400;-43
2023/06/25 10:06:22;;;;;;;8.00;6.00;;;;;;;;;;108027;275;42614;-43
2023/06/25 10:08:56;;;;;;;7.20;5.70;;;;;;;;;;108034;272;42049;-43
2023/06/25 10:11:30;;;;;;;7.80;5.30;;;;;;;;;;108039;268;38963;-44
2023/06/25 10:14:07;;;;;;;7.60;5.80;;;;;;;;;;108016;272;39710;-44
2023/06/25 10:16:41;;;;;;;6.60;5.50;;;;;;;;;;108012;275;42832;-44
2023/06/25 10:19:26;;;;;;;7.80;5.80;;;;;;;;;;107996;272;42213;-43
2023/06/25 10:22:07;;;;;;;6.80;5.30;;;;;;;;;;108008;275;38643;-43
2023/06/25 10:24:44;;;;;;;7.50;5.90;;;;;;;;;;108024;276;39450;-44
2023/06/25 10:27:30;;;;;;;6.80;5.50;;;;;;;;;;108039;272;42606;-43
2023/06/25 10:30:15;;;;;;;6.70;5.60;;;;;;;;;;108006;276;42118;-43
2023/06/25 10:32:50;;;;;;;6.60;5.20;;;;;;;;;;108077;272;38895;-45
2023/06/25 10:35:23;;;;;;;6.40;5.20;;;;;;;;;;108014;273;39461;-43
2023/06/25 10:37:57;;;;;;;7.10;5.30;;;;;;;;;;108043;272;44040;-45
2023/06/25 10:40:37;;;;;;;6.00;4.90;;;;;;;;;;107974;276;42085;-44
2023/06/25 10:43:16;;;;;;;6.40;4.80;;;;;;;;;;108065;275;38750;-44
2023/06/25 10:45:53;;;;;;;6.80;5.20;;;;;;;;;;108014;272;39743;-43
2023/06/25 10:48:27;;;;;;;6.60;4.90;;;;;;;;;;108038;275;42882;-43
2023/06/25 10:51:02;;;;;;;7.10;5.70;;;;;;;;;;108019;275;43223;-44
2023/06/25 10:53:37;;;;;;;6.90;5.40;;;;;;;;;;108040;272;38752;-44
2023/06/25 10:56:14;;;;;;;7.20;5.40;;;;;;;;;;108091;276;39792;-42
2023/06/25 10:58:53;;;;;;;6.10;4.80;;;;;;;;;;108050;275;42635;-44
2023/06/25 11:01:27;;;;;;;6.00;4.90;;;;;;;;;;108022;272;47916;-44
2023/06/25 11:04:03;;;;;;;6.40;4.90;;;;;;;;;;108011;272;38738;-44
2023/06/25 11:06:41;;;;;;;6.70;5.10;;;;;;;;;;108041;272;40727;-44
2023/06/25 11:09:15;;;;;;;6.20;4.60;;;;;;;;;;108019;268;42814;-43
2023/06/25 11:11:53;;;;;;;6.00;5.00;;;;;;;;;;107998;275;42128;-43
2023/06/25 11:14:27;;;;;;;7.20;5.10;;;;;;;;;;108061;275;38532;-43
2023/06/25 11:17:06;;;;;;;6.20;4.70;;;;;;;;;;108047;276;39443;-44
2023/06/25 11:19:39;;;;;;;7.30;5.40;;;;;;;;;;107984;272;42911;-44
2023/06/25 11:22:13;;;;;;;7.40;5.70;;;;;;;;;;107991;276;42111;-44
2023/06/25 11:24:46;;;;;;;6.90;5.80;;;;;;;;;;108047;268;38775;-43
2023/06/25 11:27:28;;;;;;;6.70;5.50;;;;;;;;;;108053;268;39681;-43
2023/06/25 11:30:07;;;;;;;7.00;5.20;;;;;;;;;;107998;275;42816;-44
2023/06/25 11:32:42;;;;;;;6.40;5.00;;;;;;;;;;108040;272;42134;-44
2023/06/25 11:35:17;;;;;;;7.50;5.30;;;;;;;;;;108068;276;38803;-43
2023/06/25 11:37:55;;;;;;;7.50;5.00;;;;;;;;;;108022;268;39906;-44
2023/06/25 11:40:33;;;;;;;6.40;4.80;;;;;;;;;;107976;272;42657;-43
2023/06/25 11:43:08;;;;;;;6.30;4.80;;;;;;;;;;108047;272;42440;-43
2023/06/25 11:45:46;;;;;;;5.90;4.70;;;;;;;;;;108013;272;38792;-43
2023/06/25 11:48:23;;;;;;;6.70;5.00;;;;;;;;;;108017;276;39835;-43
2023/06/25 11:51:07;;;;;;;6.60;4.80;;;;;;;;;;107962;275;42812;-43
2023/06/25 11:53:40;;;;;;;6.60;4.90;;;;;;;;;;108014;272;42109;-44
2023/06/25 11:56:13;;;;;;;5.90;4.30;;;;;;;;;;108042;272;38720;-44
2023/06/25 11:58:48;;;;;;;6.20;5.00;;;;;;;;;;107814;274;175442;-44
2023/06/25 12:01:21;;;;;;;6.20;4.90;;;;;;;;;;108011;275;42838;-43
2023/06/25 12:03:55;;;;;;;6.20;5.00;;;;;;;;;;108028;275;42096;-42
2023/06/25 12:06:29;;;;;;;6.20;4.90;;;;;;;;;;108021;272;38792;-42
2023/06/25 12:09:06;;;;;;;6.70;5.20;;;;;;;;;;108016;268;39846;-43
2023/06/25 12:11:39;;;;;;;6.00;4.50;;;;;;;;;;107959;268;43891;-44
2023/06/25 12:14:13;;;;;;;6.00;4.90;;;;;;;;;;108005;275;41877;-43
2023/06/25 12:16:47;;;;;;;6.20;4.80;;;;;;;;;;107994;276;39716;-42
2023/06/25 12:19:21;;;;;;;6.30;4.90;;;;;;;;;;108024;275;40943;-42
2023/06/25 12:21:56;;;;;;;6.40;4.80;;;;;;;;;;108032;272;43928;-42
2023/06/25 12:24:30;;;;;;;6.20;4.80;;;;;;;;;;108016;268;42167;-44
2023/06/25 12:27:03;;;;;;;6.20;4.90;;;;;;;;;;108015;268;39915;-42
2023/06/25 12:29:36;;;;;;;6.30;4.70;;;;;;;;;;108045;268;39705;-44
2023/06/25 12:32:11;;;;;;;6.10;4.70;;;;;;;;;;108007;272;42842;-43
2023/06/25 12:34:44;;;;;;;5.70;4.50;;;;;;;;;;108043;268;42107;-42
2023/06/25 12:37:18;;;;;;;6.90;5.00;;;;;;;;;;108052;275;38764;-43
2023/06/25 12:39:53;;;;;;;6.00;4.60;;;;;;;;;;108069;272;39681;-42
2023/06/25 12:42:28;;;;;;;6.40;4.80;;;;;;;;;;107997;272;42833;-43
2023/06/25 12:45:01;;;;;;;6.60;5.00;;;;;;;;;;107906;268;195334;-43
2023/06/25 12:47:35;;;;;;;6.20;4.60;;;;;;;;;;108054;272;38725;-43
2023/06/25 12:50:12;;;;;;;6.30;5.30;;;;;;;;;;106905;277;1449696;-43
2023/06/25 12:52:46;;;;;;;6.80;5.30;;;;;;;;;;108000;268;42809;-43
2023/06/25 12:55:19;;;;;;;7.80;5.50;;;;;;;;;;108023;268;41863;-43
2023/06/25 12:57:52;;;;;;;6.40;5.30;;;;;;;;;;108029;275;39865;-42
2023/06/25 13:00:26;;;;;;;6.70;5.00;;;;;;;;;;107993;276;40877;-42
2023/06/25 13:03:19;;;;;;;7.20;5.00;;;;;;;;;;107983;272;43907;-42
2023/06/25 13:05:53;;;;;;;6.00;5.10;;;;;;;;;;108079;268;42067;-43
2023/06/25 13:08:29;;;;;;;5.90;4.80;;;;;;;;;;107373;268;893651;-42
2023/06/25 13:11:05;;;;;;;6.60;5.20;;;;;;;;;;108049;268;39772;-42
2023/06/25 13:13:39;;;;;;;6.50;4.90;;;;;;;;;;107983;275;42923;-43
2023/06/25 13:16:19;;;;;;;6.50;5.30;;;;;;;;;;108032;276;42160;-43
2023/06/25 13:18:54;;;;;;;6.70;5.60;;;;;;;;;;107950;274;38681;-45
2023/06/25 13:21:27;;;;;;;7.50;5.60;;;;;;;;;;107992;268;39443;-42
2023/06/25 13:24:00;;;;;;;7.20;5.40;;;;;;;;;;107989;272;42672;-44
2023/06/25 13:26:34;;;;;;;7.20;5.70;;;;;;;;;;108050;272;43259;-42
2023/06/25 13:29:08;;;;;;;7.20;5.60;;;;;;;;;;108038;272;38578;-43
2023/06/25 13:31:42;;;;;;;6.60;5.80;;;;;;;;;;108001;272;39762;-43
2023/06/25 13:34:16;;;;;;;7.30;5.50;;;;;;;;;;107968;275;43071;-42
2023/06/25 13:36:49;;;;;;;6.90;5.70;;;;;;;;;;108032;268;42282;-45
2023/06/25 13:39:25;;;;;;;7.00;5.40;;;;;;;;;;108010;275;38786;-43
2023/06/25 13:42:01;;;;;;;6.20;5.20;;;;;;;;;;108013;276;39425;-43
2023/06/25 13:44:37;;;;;;;6.90;5.90;;;;;;;;;;108010;275;42586;-41
2023/06/25 13:47:12;;;;;;;7.40;5.90;;;;;;;;;;108055;272;42119;-39
2023/06/25 13:49:46;;;;;;;7.40;5.60;;;;;;;;;;108065;272;38847;-40
2023/06/25 13:52:19;;;;;;;6.80;5.50;;;;;;;;;;107996;268;39665;-39
2023/06/25 13:54:56;;;;;;;6.90;5.30;;;;;;;;;;107968;281;49472;-38
2023/06/25 13:57:29;;;;;;;7.20;5.80;;;;;;;;;;108018;272;41879;-39
2023/06/25 14:00:04;;;;;;;7.00;5.40;;;;;;;;;;108020;272;38736;-39
2023/06/25 14:02:37;;;;;;;7.30;5.50;;;;;;;;;;108059;272;40861;-39
2023/06/25 14:05:15;;;;;;;6.90;5.70;;;;;;;;;;107957;268;49593;-39
2023/06/25 14:07:48;;;;;;;6.70;5.40;;;;;;;;;;108008;276;42141;-39
2023/06/25 14:10:23;;;;;;;6.90;5.70;;;;;;;;;;108047;272;39892;-39
2023/06/25 14:12:58;;;;;;;7.00;5.50;;;;;;;;;;108050;276;39443;-39
2023/06/25 14:15:32;;;;;;;6.70;5.70;;;;;;;;;;108001;268;47600;-39
2023/06/25 14:18:06;;;;;;;7.20;5.80;;;;;;;;;;108040;272;42119;-39
2023/06/25 14:20:45;;;;;;;6.70;5.70;;;;;;;;;;108022;268;38996;-39
2023/06/25 14:23:19;;;;;;;7.30;5.20;;;;;;;;;;108051;276;39634;-39
2023/06/25 14:25:54;;;;;;;7.60;5.80;;;;;;;;;;107982;268;49426;-39
2023/06/25 14:28:27;;;;;;;7.90;5.90;;;;;;;;;;108017;268;42101;-39
2023/06/25 14:31:06;;;;;;;7.40;5.70;;;;;;;;;;108054;272;38778;-39
2023/06/25 14:33:39;;;;;;;6.80;5.70;;;;;;;;;;108025;268;40992;-40
2023/06/25 14:36:13;;;;;;;7.20;5.60;;;;;;;;;;107995;276;49523;-42
2023/06/25 14:38:46;;;;;;;7.30;5.80;;;;;;;;;;108060;272;42320;-39
2023/06/25 14:41:20;;;;;;;6.60;5.50;;;;;;;;;;108041;272;38897;-40
2023/06/25 14:43:56;;;;;;;7.20;5.70;;;;;;;;;;108025;272;39860;-41
2023/06/25 14:46:29;;;;;;;6.50;5.50;;;;;;;;;;107969;275;49534;-40
2023/06/25 14:49:03;;;;;;;7.00;5.80;;;;;;;;;;107996;275;43413;-40
2023/06/25 14:51:37;;;;;;;6.90;5.80;;;;;;;;;;108042;268;38822;-40
2023/06/25 14:54:10;;;;;;;6.70;5.70;;;;;;;;;;108050;272;40842;-40
2023/06/25 14:56:45;;;;;;;6.60;5.60;;;;;;;;;;107992;272;48563;-40
2023/06/25 14:59:22;;;;;;;7.30;5.80;;;;;;;;;;108027;275;42101;-40
2023/06/25 15:01:57;;;;;;;7.00;5.80;;;;;;;;;;108013;272;38509;-40
2023/06/25 15:04:30;;;;;;;6.90;5.70;;;;;;;;;;107907;276;175394;-41
2023/06/25 15:07:04;;;;;;;6.90;5.70;;;;;;;;;;107986;272;50803;-40
2023/06/25 15:09:37;;;;;;;7.30;5.80;;;;;;;;;;108037;275;42301;-40
2023/06/25 15:12:15;;;;;;;7.60;6.10;;;;;;;;;;108057;268;39886;-40
2023/06/25 15:14:49;;;;;;;6.80;5.80;;;;;;;;;;108077;268;39866;-40
2023/06/25 15:17:23;;;;;;;7.00;5.90;;;;;;;;;;107946;268;49867;-39
2023/06/25 15:19:56;;;;;;;6.70;5.70;;;;;;;;;;107936;268;175421;-40
2023/06/25 15:22:30;;;;;;;6.80;5.60;;;;;;;;;;108071;272;38764;-40
2023/06/25 15:25:05;;;;;;;7.60;6.00;;;;;;;;;;108034;272;39652;-40
2023/06/25 15:27:39;;;;;;;6.70;5.60;;;;;;;;;;108146;272;49972;-40
2023/06/25 15:30:14;;;;;;;6.80;5.70;;;;;;;;;;108048;268;42109;-40